sensor_id;sensor_type;location;lat;lon;timestamp;pressure;altitude;pressure_sealevel;temperature;humidity
64610;BME280;51019;46.090;6.350;2022-10-31T00:01:20;97120.75;;;8.26;100.00
64610;BME280;51019;46.090;6.350;2022-10-31T00:03:48;97117.75;;;8.44;100.00
64610;BME280;51019;46.090;6.350;2022-10-31T00:06:15;97119.47;;;8.56;100.00
64610;BME280;51019;46.090;6.350;2022-10-31T00:08:43;97107.09;;;8.58;100.00
64610;BME280;51019;46.090;6.350;2022-10-31T00:11:11;97112.19;;;8.48;100.00
64610;BME280;51019;46.090;6.350;2022-10-31T00:13:40;97123.75;;;8.68;100.00
64610;BME280;51019;46.090;6.350;2022-10-31T00:16:13;97127.03;;;8.59;100.00
64610;BME280;51019;46.090;6.350;2022-10-31T00:18:41;97125.66;;;8.31;100.00
64610;BME280;51019;46.090;6.350;2022-10-31T00:21:09;97121.94;;;8.22;100.00
64610;BME280;51019;46.090;6.350;2022-10-31T00:23:36;97121.50;;;8.05;100.00
64610;BME280;51019;46.090;6.350;2022-10-31T00:26:04;97119.78;;;7.92;100.00
64610;BME280;51019;46.090;6.350;2022-10-31T00:28:32;97127.66;;;8.27;100.00
64610;BME280;51019;46.090;6.350;2022-10-31T00:31:04;97126.06;;;8.14;100.00
64610;BME280;51019;46.090;6.350;2022-10-31T00:33:32;97118.56;;;8.09;100.00
64610;BME280;51019;46.090;6.350;2022-10-31T00:36:00;97114.78;;;8.13;100.00
64610;BME280;51019;46.090;6.350;2022-10-31T00:38:28;97121.13;;;8.22;100.00
64610;BME280;51019;46.090;6.350;2022-10-31T00:40:55;97123.22;;;8.17;100.00
64610;BME280;51019;46.090;6.350;2022-10-31T00:43:23;97121.78;;;8.13;100.00
64610;BME280;51019;46.090;6.350;2022-10-31T00:45:50;97124.63;;;8.10;100.00
64610;BME280;51019;46.090;6.350;2022-10-31T00:48:19;97121.50;;;8.05;100.00
64610;BME280;51019;46.090;6.350;2022-10-31T00:50:47;97120.41;;;7.96;100.00
64610;BME280;51019;46.090;6.350;2022-10-31T00:53:14;97118.13;;;7.91;100.00
64610;BME280;51019;46.090;6.350;2022-10-31T00:55:41;97113.03;;;7.90;100.00
64610;BME280;51019;46.090;6.350;2022-10-31T00:58:10;97119.13;;;8.01;100.00
64610;BME280;51019;46.090;6.350;2022-10-31T01:00:37;97118.56;;;8.09;100.00
64610;BME280;51019;46.090;6.350;2022-10-31T01:03:06;97120.00;;;8.13;100.00
64610;BME280;51019;46.090;6.350;2022-10-31T01:05:35;97102.72;;;7.88;100.00
64610;BME280;51019;46.090;6.350;2022-10-31T01:08:03;97109.41;;;8.03;100.00
64610;BME280;51019;46.090;6.350;2022-10-31T01:10:30;97111.72;;;8.19;100.00
64610;BME280;51019;46.090;6.350;2022-10-31T01:12:57;97108.84;;;8.11;100.00
64610;BME280;51019;46.090;6.350;2022-10-31T01:15:25;97104.47;;;8.12;100.00
64610;BME280;51019;46.090;6.350;2022-10-31T01:17:52;97108.03;;;8.11;100.00
64610;BME280;51019;46.090;6.350;2022-10-31T01:20:20;97060.19;;;7.75;100.00
64610;BME280;51019;46.090;6.350;2022-10-31T01:22:49;97098.75;;;8.07;100.00
64610;BME280;51019;46.090;6.350;2022-10-31T01:25:17;97106.84;;;8.15;100.00
64610;BME280;51019;46.090;6.350;2022-10-31T01:27:44;97101.38;;;8.18;100.00
64610;BME280;51019;46.090;6.350;2022-10-31T01:30:12;97095.47;;;8.27;100.00
64610;BME280;51019;46.090;6.350;2022-10-31T01:32:39;97095.19;;;8.31;100.00
64610;BME280;51019;46.090;6.350;2022-10-31T01:35:06;97091.63;;;8.32;100.00
64610;BME280;51019;46.090;6.350;2022-10-31T01:37:33;97095.34;;;8.17;100.00
64610;BME280;51019;46.090;6.350;2022-10-31T01:40:03;97100.34;;;8.20;100.00
64610;BME280;51019;46.090;6.350;2022-10-31T01:42:31;97093.44;;;8.19;100.00
64610;BME280;51019;46.090;6.350;2022-10-31T01:44:59;97092.34;;;8.11;100.00
64610;BME280;51019;46.090;6.350;2022-10-31T01:47:38;97094.13;;;8.10;100.00
64610;BME280;51019;46.090;6.350;2022-10-31T01:50:13;97083.53;;;8.00;100.00
64610;BME280;51019;46.090;6.350;2022-10-31T01:52:45;97079.47;;;7.96;100.00
64610;BME280;51019;46.090;6.350;2022-10-31T01:55:18;97082.28;;;8.17;100.00
64610;BME280;51019;46.090;6.350;2022-10-31T01:57:50;97074.44;;;8.17;100.00
64610;BME280;51019;46.090;6.350;2022-10-31T02:00:20;97073.28;;;8.21;100.00
64610;BME280;51019;46.090;6.350;2022-10-31T02:02:49;97048.56;;;8.14;100.00
64610;BME280;51019;46.090;6.350;2022-10-31T02:05:19;97062.72;;;8.23;100.00
64610;BME280;51019;46.090;6.350;2022-10-31T02:07:53;97041.56;;;8.15;100.00
64610;BME280;51019;46.090;6.350;2022-10-31T02:10:23;97075.84;;;8.45;100.00
64610;BME280;51019;46.090;6.350;2022-10-31T02:12:52;97068.94;;;8.33;100.00
64610;BME280;51019;46.090;6.350;2022-10-31T02:15:20;97070.06;;;8.18;100.00
64610;BME280;51019;46.090;6.350;2022-10-31T02:17:47;97038.91;;;8.03;100.00
64610;BME280;51019;46.090;6.350;2022-10-31T02:20:16;97067.78;;;8.13;100.00
64610;BME280;51019;46.090;6.350;2022-10-31T02:23:01;97061.50;;;8.16;100.00
64610;BME280;51019;46.090;6.350;2022-10-31T02:25:45;97054.88;;;8.12;100.00
64610;BME280;51019;46.090;6.350;2022-10-31T02:28:40;97048.94;;;8.21;100.00
64610;BME280;51019;46.090;6.350;2022-10-31T02:31:29;97051.13;;;8.38;100.00
64610;BME280;51019;46.090;6.350;2022-10-31T02:34:02;97053.41;;;8.43;100.00
64610;BME280;51019;46.090;6.350;2022-10-31T02:36:37;97050.84;;;8.30;100.00
64610;BME280;51019;46.090;6.350;2022-10-31T02:39:12;97051.66;;;8.19;100.00
64610;BME280;51019;46.090;6.350;2022-10-31T02:41:46;97051.53;;;8.10;100.00
64610;BME280;51019;46.090;6.350;2022-10-31T02:44:22;97050.69;;;8.09;100.00
64610;BME280;51019;46.090;6.350;2022-10-31T02:46:58;97051.06;;;8.16;100.00
64610;BME280;51019;46.090;6.350;2022-10-31T02:49:32;97043.09;;;8.06;100.00
64610;BME280;51019;46.090;6.350;2022-10-31T02:52:00;97042.63;;;8.01;100.00
64610;BME280;51019;46.090;6.350;2022-10-31T02:54:28;97021.34;;;7.94;100.00
64610;BME280;51019;46.090;6.350;2022-10-31T02:56:59;97036.72;;;8.21;100.00
64610;BME280;51019;46.090;6.350;2022-10-31T02:59:28;96995.34;;;7.93;100.00
64610;BME280;51019;46.090;6.350;2022-10-31T03:05:43;97023.84;;;7.96;100.00
64610;BME280;51019;46.090;6.350;2022-10-31T03:08:21;97043.19;;;8.05;100.00
64610;BME280;51019;46.090;6.350;2022-10-31T03:10:54;97038.19;;;8.01;100.00
64610;BME280;51019;46.090;6.350;2022-10-31T03:13:32;97030.84;;;7.95;100.00
64610;BME280;51019;46.090;6.350;2022-10-31T03:16:06;97038.19;;;8.01;100.00
64610;BME280;51019;46.090;6.350;2022-10-31T03:18:39;97037.75;;;8.08;100.00
64610;BME280;51019;46.090;6.350;2022-10-31T03:21:12;97042.13;;;8.07;100.00
64610;BME280;51019;46.090;6.350;2022-10-31T03:23:43;97035.06;;;8.20;100.00
64610;BME280;51019;46.090;6.350;2022-10-31T03:26:12;97037.88;;;8.06;100.00
64610;BME280;51019;46.090;6.350;2022-10-31T03:28:45;97044.00;;;7.94;100.00
64610;BME280;51019;46.090;6.350;2022-10-31T03:31:17;97019.91;;;7.90;100.00
64610;BME280;51019;46.090;6.350;2022-10-31T03:33:46;97036.66;;;7.99;100.00
64610;BME280;51019;46.090;6.350;2022-10-31T03:36:16;97035.94;;;7.97;100.00
64610;BME280;51019;46.090;6.350;2022-10-31T03:38:46;97038.56;;;7.97;100.00
64610;BME280;51019;46.090;6.350;2022-10-31T03:41:17;97012.53;;;7.84;100.00
64610;BME280;51019;46.090;6.350;2022-10-31T03:43:52;97020.50;;;7.94;100.00
64610;BME280;51019;46.090;6.350;2022-10-31T03:46:21;97032.28;;;7.99;100.00
64610;BME280;51019;46.090;6.350;2022-10-31T03:48:48;97025.44;;;8.10;100.00
64610;BME280;51019;46.090;6.350;2022-10-31T03:51:22;97009.44;;;7.90;100.00
64610;BME280;51019;46.090;6.350;2022-10-31T03:53:55;97036.53;;;7.89;100.00
64610;BME280;51019;46.090;6.350;2022-10-31T03:56:29;97049.44;;;7.91;100.00
64610;BME280;51019;46.090;6.350;2022-10-31T03:59:04;96991.25;;;7.67;100.00
64610;BME280;51019;46.090;6.350;2022-10-31T04:01:37;97043.53;;;7.89;100.00
64610;BME280;51019;46.090;6.350;2022-10-31T04:04:06;97015.81;;;7.75;100.00
64610;BME280;51019;46.090;6.350;2022-10-31T04:06:38;97038.38;;;7.76;100.00
64610;BME280;51019;46.090;6.350;2022-10-31T04:09:07;97024.72;;;7.73;100.00
64610;BME280;51019;46.090;6.350;2022-10-31T04:11:40;97022.94;;;7.73;100.00
64610;BME280;51019;46.090;6.350;2022-10-31T04:14:11;97040.63;;;7.81;100.00
64610;BME280;51019;46.090;6.350;2022-10-31T04:16:39;97035.69;;;7.89;100.00
64610;BME280;51019;46.090;6.350;2022-10-31T04:19:08;97037.19;;;7.80;100.00
64610;BME280;51019;46.090;6.350;2022-10-31T04:21:37;97034.47;;;7.82;100.00
64610;BME280;51019;46.090;6.350;2022-10-31T04:24:05;97024.38;;;7.77;100.00
64610;BME280;51019;46.090;6.350;2022-10-31T04:26:33;97025.06;;;7.79;100.00
64610;BME280;51019;46.090;6.350;2022-10-31T04:29:03;97027.94;;;7.76;100.00
64610;BME280;51019;46.090;6.350;2022-10-31T04:31:31;97030.75;;;7.73;100.00
64610;BME280;51019;46.090;6.350;2022-10-31T04:33:58;97031.91;;;7.69;100.00
64610;BME280;51019;46.090;6.350;2022-10-31T04:36:25;97032.16;;;7.66;100.00
64610;BME280;51019;46.090;6.350;2022-10-31T04:38:55;97035.03;;;7.50;100.00
64610;BME280;51019;46.090;6.350;2022-10-31T04:41:24;97030.66;;;7.51;100.00
64610;BME280;51019;46.090;6.350;2022-10-31T04:43:51;97025.44;;;7.27;100.00
64610;BME280;51019;46.090;6.350;2022-10-31T04:46:19;97035.97;;;7.25;100.00
64610;BME280;51019;46.090;6.350;2022-10-31T04:48:46;97036.75;;;7.15;100.00
64610;BME280;51019;46.090;6.350;2022-10-31T04:51:13;97028.31;;;7.11;100.00
64610;BME280;51019;46.090;6.350;2022-10-31T04:53:43;97037.47;;;7.17;100.00
64610;BME280;51019;46.090;6.350;2022-10-31T04:56:12;97030.91;;;7.11;100.00
64610;BME280;51019;46.090;6.350;2022-10-31T04:58:44;97015.53;;;6.96;100.00
64610;BME280;51019;46.090;6.350;2022-10-31T05:01:12;97023.75;;;7.02;100.00
64610;BME280;51019;46.090;6.350;2022-10-31T05:03:40;97024.16;;;7.09;100.00
64610;BME280;51019;46.090;6.350;2022-10-31T05:06:08;97003.66;;;6.91;100.00
64610;BME280;51019;46.090;6.350;2022-10-31T05:08:35;97022.09;;;7.01;100.00
64610;BME280;51019;46.090;6.350;2022-10-31T05:11:03;97020.31;;;7.02;100.00
64610;BME280;51019;46.090;6.350;2022-10-31T05:13:33;97008.84;;;7.04;100.00
64610;BME280;51019;46.090;6.350;2022-10-31T05:16:02;97018.22;;;7.07;100.00
64610;BME280;51019;46.090;6.350;2022-10-31T05:18:29;97018.47;;;6.91;100.00
64610;BME280;51019;46.090;6.350;2022-10-31T05:20:56;97003.00;;;6.77;100.00
64610;BME280;51019;46.090;6.350;2022-10-31T05:23:23;97013.63;;;6.74;100.00
64610;BME280;51019;46.090;6.350;2022-10-31T05:25:51;96985.66;;;6.39;100.00
64610;BME280;51019;46.090;6.350;2022-10-31T05:28:18;97024.25;;;6.71;100.00
64610;BME280;51019;46.090;6.350;2022-10-31T05:30:47;97022.03;;;6.77;100.00
64610;BME280;51019;46.090;6.350;2022-10-31T05:33:14;97023.63;;;6.67;100.00
64610;BME280;51019;46.090;6.350;2022-10-31T05:35:41;96997.19;;;6.35;100.00
64610;BME280;51019;46.090;6.350;2022-10-31T05:38:09;97016.97;;;6.63;100.00
64610;BME280;51019;46.090;6.350;2022-10-31T05:40:36;97023.22;;;6.61;100.00
64610;BME280;51019;46.090;6.350;2022-10-31T05:43:03;97015.22;;;6.51;100.00
64610;BME280;51019;46.090;6.350;2022-10-31T05:45:30;97025.19;;;6.57;100.00
64610;BME280;51019;46.090;6.350;2022-10-31T05:48:01;97016.97;;;6.50;100.00
64610;BME280;51019;46.090;6.350;2022-10-31T05:50:30;97022.19;;;6.50;100.00
64610;BME280;51019;46.090;6.350;2022-10-31T05:53:00;97027.06;;;6.55;100.00
64610;BME280;51019;46.090;6.350;2022-10-31T05:55:29;97015.59;;;6.57;100.00
64610;BME280;51019;46.090;6.350;2022-10-31T05:57:56;97024.56;;;6.66;100.00
64610;BME280;51019;46.090;6.350;2022-10-31T06:00:26;97024.00;;;6.86;100.00
64610;BME280;51019;46.090;6.350;2022-10-31T06:03:00;97008.91;;;6.79;100.00
64610;BME280;51019;46.090;6.350;2022-10-31T06:05:30;97019.13;;;6.82;100.00
64610;BME280;51019;46.090;6.350;2022-10-31T06:07:58;97006.84;;;6.71;100.00
64610;BME280;51019;46.090;6.350;2022-10-31T06:10:26;96980.63;;;6.62;100.00
64610;BME280;51019;46.090;6.350;2022-10-31T06:12:53;97018.72;;;6.75;100.00
64610;BME280;51019;46.090;6.350;2022-10-31T06:15:21;97023.03;;;6.51;100.00
64610;BME280;51019;46.090;6.350;2022-10-31T06:18:04;97021.16;;;6.53;100.00
64610;BME280;51019;46.090;6.350;2022-10-31T06:20:33;97026.75;;;6.60;100.00
64610;BME280;51019;46.090;6.350;2022-10-31T06:23:02;97006.66;;;6.62;100.00
64610;BME280;51019;46.090;6.350;2022-10-31T06:25:30;97026.44;;;6.64;100.00
64610;BME280;51019;46.090;6.350;2022-10-31T06:27:59;97032.88;;;6.84;100.00
64610;BME280;51019;46.090;6.350;2022-10-31T06:30:27;97029.13;;;6.88;100.00
64610;BME280;51019;46.090;6.350;2022-10-31T06:33:02;97036.63;;;6.80;100.00
64610;BME280;51019;46.090;6.350;2022-10-31T06:35:30;97040.72;;;6.59;100.00
64610;BME280;51019;46.090;6.350;2022-10-31T06:37:58;97045.38;;;6.79;100.00
64610;BME280;51019;46.090;6.350;2022-10-31T06:40:26;97028.16;;;6.89;100.00
64610;BME280;51019;46.090;6.350;2022-10-31T06:42:59;97040.13;;;7.04;100.00
64610;BME280;51019;46.090;6.350;2022-10-31T06:45:27;97038.91;;;6.97;100.00
64610;BME280;51019;46.090;6.350;2022-10-31T06:47:55;97040.78;;;6.95;100.00
64610;BME280;51019;46.090;6.350;2022-10-31T06:50:25;97051.03;;;6.73;100.00
64610;BME280;51019;46.090;6.350;2022-10-31T06:52:53;97052.22;;;7.05;100.00
64610;BME280;51019;46.090;6.350;2022-10-31T06:55:20;97053.94;;;7.17;100.00
64610;BME280;51019;46.090;6.350;2022-10-31T06:57:50;97060.94;;;7.17;100.00
64610;BME280;51019;46.090;6.350;2022-10-31T07:00:18;97050.25;;;7.33;100.00
64610;BME280;51019;46.090;6.350;2022-10-31T07:02:53;97052.69;;;7.47;100.00
64610;BME280;51019;46.090;6.350;2022-10-31T07:05:21;97045.38;;;7.52;100.00
64610;BME280;51019;46.090;6.350;2022-10-31T07:07:53;97067.50;;;7.70;100.00
64610;BME280;51019;46.090;6.350;2022-10-31T07:10:26;97067.91;;;7.77;100.00
64610;BME280;51019;46.090;6.350;2022-10-31T07:12:57;97040.31;;;7.61;100.00
64610;BME280;51019;46.090;6.350;2022-10-31T07:15:25;97073.41;;;7.61;100.00
64610;BME280;51019;46.090;6.350;2022-10-31T07:17:59;97048.09;;;7.50;100.00
64610;BME280;51019;46.090;6.350;2022-10-31T07:20:27;97065.94;;;7.68;100.00
64610;BME280;51019;46.090;6.350;2022-10-31T07:22:58;97060.44;;;7.83;100.00
64610;BME280;51019;46.090;6.350;2022-10-31T07:25:27;97071.44;;;7.99;100.00
64610;BME280;51019;46.090;6.350;2022-10-31T07:27:55;97065.31;;;8.12;100.00
64610;BME280;51019;46.090;6.350;2022-10-31T07:30:23;97062.91;;;8.32;100.00
64610;BME280;51019;46.090;6.350;2022-10-31T07:32:50;97056.16;;;8.63;100.00
64610;BME280;51019;46.090;6.350;2022-10-31T07:35:20;97062.56;;;8.70;100.00
64610;BME280;51019;46.090;6.350;2022-10-31T07:37:49;97047.81;;;8.92;100.00
64610;BME280;51019;46.090;6.350;2022-10-31T07:40:19;97042.34;;;9.06;100.00
64610;BME280;51019;46.090;6.350;2022-10-31T07:42:48;97048.91;;;9.12;100.00
64610;BME280;51019;46.090;6.350;2022-10-31T07:45:17;97053.09;;;9.57;100.00
64610;BME280;51019;46.090;6.350;2022-10-31T07:47:52;97049.44;;;9.80;100.00
64610;BME280;51019;46.090;6.350;2022-10-31T07:50:22;97054.66;;;10.12;100.00
64610;BME280;51019;46.090;6.350;2022-10-31T07:52:58;97050.66;;;9.97;100.00
64610;BME280;51019;46.090;6.350;2022-10-31T07:55:29;97021.59;;;9.79;100.00
64610;BME280;51019;46.090;6.350;2022-10-31T07:57:58;97042.66;;;10.31;100.00
64610;BME280;51019;46.090;6.350;2022-10-31T08:00:31;97037.03;;;10.35;100.00
64610;BME280;51019;46.090;6.350;2022-10-31T08:02:59;97034.47;;;10.75;100.00
64610;BME280;51019;46.090;6.350;2022-10-31T08:05:27;97028.91;;;10.99;100.00
64610;BME280;51019;46.090;6.350;2022-10-31T08:07:54;97044.81;;;11.67;100.00
64610;BME280;51019;46.090;6.350;2022-10-31T08:10:23;97031.88;;;11.84;100.00
64610;BME280;51019;46.090;6.350;2022-10-31T08:12:56;97028.81;;;12.27;100.00
64610;BME280;51019;46.090;6.350;2022-10-31T08:15:25;97030.81;;;12.43;100.00
64610;BME280;51019;46.090;6.350;2022-10-31T08:17:53;97016.22;;;13.15;100.00
64610;BME280;51019;46.090;6.350;2022-10-31T08:20:21;97015.78;;;13.09;100.00
64610;BME280;51019;46.090;6.350;2022-10-31T08:22:56;97016.75;;;13.18;100.00
64610;BME280;51019;46.090;6.350;2022-10-31T08:25:24;97001.84;;;12.99;100.00
64610;BME280;51019;46.090;6.350;2022-10-31T08:27:52;97006.25;;;13.36;100.00
64610;BME280;51019;46.090;6.350;2022-10-31T08:30:22;96995.72;;;13.36;100.00
64610;BME280;51019;46.090;6.350;2022-10-31T08:32:58;96988.75;;;13.98;100.00
64610;BME280;51019;46.090;6.350;2022-10-31T08:35:27;96984.88;;;14.53;95.23
64610;BME280;51019;46.090;6.350;2022-10-31T08:37:55;96973.00;;;14.92;91.73
64610;BME280;51019;46.090;6.350;2022-10-31T08:40:23;96983.81;;;15.73;89.47
64610;BME280;51019;46.090;6.350;2022-10-31T08:42:58;96981.00;;;16.47;81.46
64610;BME280;51019;46.090;6.350;2022-10-31T08:45:28;96989.31;;;16.12;81.58
64610;BME280;51019;46.090;6.350;2022-10-31T08:47:57;96980.00;;;16.56;80.02
64610;BME280;51019;46.090;6.350;2022-10-31T08:50:26;96992.94;;;16.11;85.68
64610;BME280;51019;46.090;6.350;2022-10-31T08:52:59;96989.44;;;16.26;86.88
64610;BME280;51019;46.090;6.350;2022-10-31T08:55:26;96989.78;;;15.67;89.65
64610;BME280;51019;46.090;6.350;2022-10-31T08:58:02;96974.25;;;15.55;88.92
64610;BME280;51019;46.090;6.350;2022-10-31T09:00:33;96958.56;;;16.11;86.41
64610;BME280;51019;46.090;6.350;2022-10-31T09:03:03;96967.06;;;16.61;84.62
64610;BME280;51019;46.090;6.350;2022-10-31T09:05:31;96969.16;;;17.29;79.51
64610;BME280;51019;46.090;6.350;2022-10-31T09:08:02;96976.53;;;17.42;77.99
64610;BME280;51019;46.090;6.350;2022-10-31T09:10:31;96971.50;;;18.24;74.94
64610;BME280;51019;46.090;6.350;2022-10-31T09:13:00;96971.22;;;18.19;75.71
64610;BME280;51019;46.090;6.350;2022-10-31T09:15:31;96962.81;;;18.30;74.20
64610;BME280;51019;46.090;6.350;2022-10-31T09:17:59;96958.44;;;18.51;73.94
64610;BME280;51019;46.090;6.350;2022-10-31T09:20:27;96954.56;;;18.77;72.29
64610;BME280;51019;46.090;6.350;2022-10-31T09:22:56;96948.75;;;18.44;72.81
64610;BME280;51019;46.090;6.350;2022-10-31T09:25:24;96954.88;;;19.33;70.07
64610;BME280;51019;46.090;6.350;2022-10-31T09:27:56;96953.50;;;19.94;69.23
64610;BME280;51019;46.090;6.350;2022-10-31T09:30:24;96949.38;;;20.69;65.37
64610;BME280;51019;46.090;6.350;2022-10-31T09:33:00;96939.41;;;20.77;62.90
64610;BME280;51019;46.090;6.350;2022-10-31T09:35:29;96953.91;;;21.44;59.62
64610;BME280;51019;46.090;6.350;2022-10-31T09:37:58;96953.75;;;20.48;60.35
64610;BME280;51019;46.090;6.350;2022-10-31T09:40:31;96940.81;;;20.73;61.59
64610;BME280;51019;46.090;6.350;2022-10-31T09:43:06;96957.50;;;20.88;61.09
64610;BME280;51019;46.090;6.350;2022-10-31T09:45:58;96927.88;;;20.36;62.74
64610;BME280;51019;46.090;6.350;2022-10-31T09:48:37;96959.84;;;21.05;61.74
64610;BME280;51019;46.090;6.350;2022-10-31T09:51:10;96945.94;;;18.08;68.96
64610;BME280;51019;46.090;6.350;2022-10-31T09:53:42;96956.00;;;17.13;74.48
64610;BME280;51019;46.090;6.350;2022-10-31T09:56:14;96930.91;;;17.55;73.03
64610;BME280;51019;46.090;6.350;2022-10-31T09:58:44;96947.34;;;18.19;70.48
64610;BME280;51019;46.090;6.350;2022-10-31T10:01:30;96940.19;;;16.97;76.00
64610;BME280;51019;46.090;6.350;2022-10-31T10:04:03;96951.22;;;17.09;75.86
64610;BME280;51019;46.090;6.350;2022-10-31T10:06:35;96925.31;;;18.33;70.25
64610;BME280;51019;46.090;6.350;2022-10-31T10:09:06;96949.81;;;19.38;67.07
64610;BME280;51019;46.090;6.350;2022-10-31T10:11:46;96943.09;;;20.42;63.71
64610;BME280;51019;46.090;6.350;2022-10-31T10:14:53;96934.22;;;20.69;62.50
64610;BME280;51019;46.090;6.350;2022-10-31T10:17:43;96942.56;;;21.28;61.86
64610;BME280;51019;46.090;6.350;2022-10-31T10:20:27;96945.22;;;21.28;61.50
64610;BME280;51019;46.090;6.350;2022-10-31T10:23:19;96927.19;;;21.37;60.97
64610;BME280;51019;46.090;6.350;2022-10-31T10:25:53;96924.72;;;21.35;60.65
64610;BME280;51019;46.090;6.350;2022-10-31T10:28:28;96943.31;;;21.90;59.01
64610;BME280;51019;46.090;6.350;2022-10-31T10:31:02;96933.94;;;22.20;57.70
64610;BME280;51019;46.090;6.350;2022-10-31T10:33:33;96947.63;;;22.70;57.52
64610;BME280;51019;46.090;6.350;2022-10-31T10:36:08;96944.50;;;22.93;56.59
64610;BME280;51019;46.090;6.350;2022-10-31T10:38:42;96929.78;;;22.24;56.13
64610;BME280;51019;46.090;6.350;2022-10-31T10:41:17;96934.66;;;21.55;57.86
64610;BME280;51019;46.090;6.350;2022-10-31T10:43:44;96927.00;;;23.10;54.20
64610;BME280;51019;46.090;6.350;2022-10-31T10:46:19;96919.25;;;23.40;52.29
64610;BME280;51019;46.090;6.350;2022-10-31T10:49:36;96916.59;;;22.69;52.62
64610;BME280;51019;46.090;6.350;2022-10-31T10:52:15;96917.09;;;22.00;55.74
64610;BME280;51019;46.090;6.350;2022-10-31T10:54:54;96910.41;;;21.02;59.11
64610;BME280;51019;46.090;6.350;2022-10-31T10:57:38;96905.44;;;20.23;62.07
64610;BME280;51019;46.090;6.350;2022-10-31T11:00:18;96908.75;;;20.94;62.15
64610;BME280;51019;46.090;6.350;2022-10-31T11:02:50;96894.75;;;22.98;54.82
64610;BME280;51019;46.090;6.350;2022-10-31T11:05:25;96892.34;;;22.90;54.42
64610;BME280;51019;46.090;6.350;2022-10-31T11:07:55;96890.75;;;23.21;53.96
64610;BME280;51019;46.090;6.350;2022-10-31T11:10:24;96889.56;;;23.48;53.22
64610;BME280;51019;46.090;6.350;2022-10-31T11:13:01;96885.63;;;23.88;51.58
64610;BME280;51019;46.090;6.350;2022-10-31T11:15:31;96881.09;;;24.39;49.42
64610;BME280;51019;46.090;6.350;2022-10-31T11:18:02;96866.59;;;24.03;50.48
64610;BME280;51019;46.090;6.350;2022-10-31T11:20:33;96874.03;;;24.26;50.64
64610;BME280;51019;46.090;6.350;2022-10-31T11:23:17;96879.94;;;23.47;53.85
64610;BME280;51019;46.090;6.350;2022-10-31T11:25:49;96857.94;;;24.01;50.89
64610;BME280;51019;46.090;6.350;2022-10-31T11:28:18;96852.75;;;22.48;54.48
64610;BME280;51019;46.090;6.350;2022-10-31T11:30:47;96866.63;;;21.18;60.09
64610;BME280;51019;46.090;6.350;2022-10-31T11:33:24;96866.13;;;21.01;62.53
64610;BME280;51019;46.090;6.350;2022-10-31T11:35:54;96861.56;;;20.41;65.83
64610;BME280;51019;46.090;6.350;2022-10-31T11:38:29;96864.56;;;20.31;67.36
64610;BME280;51019;46.090;6.350;2022-10-31T11:41:02;96863.66;;;20.93;66.20
64610;BME280;51019;46.090;6.350;2022-10-31T11:43:34;96866.56;;;20.57;65.73
64610;BME280;51019;46.090;6.350;2022-10-31T11:46:08;96860.75;;;20.81;65.79
64610;BME280;51019;46.090;6.350;2022-10-31T11:48:37;96846.63;;;21.81;61.50
64610;BME280;51019;46.090;6.350;2022-10-31T11:51:04;96847.09;;;22.89;56.78
64610;BME280;51019;46.090;6.350;2022-10-31T11:53:35;96835.09;;;23.42;55.29
64610;BME280;51019;46.090;6.350;2022-10-31T11:56:05;96851.13;;;23.42;54.97
64610;BME280;51019;46.090;6.350;2022-10-31T11:58:33;96848.03;;;23.52;54.35
64610;BME280;51019;46.090;6.350;2022-10-31T12:01:01;96842.50;;;24.21;50.81
64610;BME280;51019;46.090;6.350;2022-10-31T12:03:50;96834.41;;;23.22;52.66
64610;BME280;51019;46.090;6.350;2022-10-31T12:06:23;96826.16;;;22.72;52.24
64610;BME280;51019;46.090;6.350;2022-10-31T12:08:53;96830.28;;;24.07;50.74
64610;BME280;51019;46.090;6.350;2022-10-31T12:11:36;96817.63;;;24.39;48.69
64610;BME280;51019;46.090;6.350;2022-10-31T12:14:20;96790.38;;;24.60;46.93
64610;BME280;51019;46.090;6.350;2022-10-31T12:16:59;96793.00;;;24.31;49.11
64610;BME280;51019;46.090;6.350;2022-10-31T12:19:36;96816.09;;;24.68;48.55
64610;BME280;51019;46.090;6.350;2022-10-31T12:22:13;96805.16;;;24.33;48.28
64610;BME280;51019;46.090;6.350;2022-10-31T12:25:02;96781.25;;;23.64;52.76
64610;BME280;51019;46.090;6.350;2022-10-31T12:27:44;96797.19;;;22.05;55.37
64610;BME280;51019;46.090;6.350;2022-10-31T12:30:20;96795.69;;;22.93;54.62
64610;BME280;51019;46.090;6.350;2022-10-31T12:33:07;96778.34;;;23.09;53.30
64610;BME280;51019;46.090;6.350;2022-10-31T12:35:55;96759.88;;;22.56;53.77
64610;BME280;51019;46.090;6.350;2022-10-31T12:38:47;96765.84;;;22.52;53.56
64610;BME280;51019;46.090;6.350;2022-10-31T12:41:39;96755.94;;;23.35;49.58
64610;BME280;51019;46.090;6.350;2022-10-31T12:44:22;96761.72;;;24.98;47.23
64610;BME280;51019;46.090;6.350;2022-10-31T12:47:08;96756.00;;;24.94;48.51
64610;BME280;51019;46.090;6.350;2022-10-31T12:49:49;96752.69;;;25.63;45.17
64610;BME280;51019;46.090;6.350;2022-10-31T12:52:33;96733.00;;;25.16;43.87
64610;BME280;51019;46.090;6.350;2022-10-31T12:55:14;96684.16;;;25.49;43.98
64610;BME280;51019;46.090;6.350;2022-10-31T12:57:50;96684.66;;;25.81;43.66
64610;BME280;51019;46.090;6.350;2022-10-31T13:00:20;96723.06;;;26.57;42.97
64610;BME280;51019;46.090;6.350;2022-10-31T13:02:51;96731.09;;;25.05;47.22
64610;BME280;51019;46.090;6.350;2022-10-31T13:05:27;96693.66;;;23.96;48.51
64610;BME280;51019;46.090;6.350;2022-10-31T13:08:00;96717.94;;;23.01;51.75
64610;BME280;51019;46.090;6.350;2022-10-31T13:10:36;96715.50;;;21.84;54.98
64610;BME280;51019;46.090;6.350;2022-10-31T13:13:14;96701.81;;;21.54;56.15
64610;BME280;51019;46.090;6.350;2022-10-31T13:15:48;96657.09;;;20.84;58.08
64610;BME280;51019;46.090;6.350;2022-10-31T13:18:30;96585.47;;;20.15;58.63
64610;BME280;51019;46.090;6.350;2022-10-31T13:21:03;96595.38;;;19.80;59.79
64610;BME280;51019;46.090;6.350;2022-10-31T13:23:39;96592.44;;;19.62;61.78
64610;BME280;51019;46.090;6.350;2022-10-31T13:26:10;96659.78;;;20.16;61.79
64610;BME280;51019;46.090;6.350;2022-10-31T13:28:47;96593.03;;;19.57;62.24